createdAt,value
2019-03-30T00:01:38.869Z,8.70
2019-03-30T00:04:04.726Z,9.00
2019-03-30T00:06:30.561Z,8.37
2019-03-30T00:08:56.422Z,8.20
2019-03-30T00:11:22.278Z,8.00
2019-03-30T00:13:48.132Z,8.83
2019-03-30T00:16:13.978Z,7.33
2019-03-30T00:18:41.327Z,7.30
2019-03-30T00:21:07.472Z,8.30
2019-03-30T00:23:33.324Z,8.20
2019-03-30T00:25:59.189Z,7.33
2019-03-30T00:28:25.048Z,6.50
2019-03-30T00:30:50.896Z,6.57
2019-03-30T00:33:16.743Z,7.33
2019-03-30T00:35:42.591Z,7.20
2019-03-30T00:38:08.430Z,7.50
2019-03-30T00:40:34.308Z,6.37
2019-03-30T00:43:00.149Z,7.43
2019-03-30T00:45:25.992Z,7.10
2019-03-30T00:47:51.836Z,6.30
2019-03-30T00:50:17.674Z,7.07
2019-03-30T00:52:43.535Z,7.30
2019-03-30T00:55:09.394Z,7.60
2019-03-30T00:57:35.342Z,7.67
2019-03-30T01:00:01.177Z,7.23
2019-03-30T01:02:27.023Z,7.60
2019-03-30T01:04:52.866Z,7.20
2019-03-30T01:07:18.694Z,7.57
2019-03-30T01:09:44.645Z,7.90
2019-03-30T01:12:11.113Z,8.30
2019-03-30T01:14:36.964Z,7.17
2019-03-30T01:17:04.035Z,7.73
2019-03-30T01:19:29.868Z,7.57
2019-03-30T01:21:56.374Z,8.23
2019-03-30T01:24:22.271Z,6.50
2019-03-30T01:26:48.099Z,6.80
2019-03-30T01:29:13.948Z,6.60
2019-03-30T01:31:39.793Z,7.60
2019-03-30T01:34:05.644Z,7.50
2019-03-30T01:36:31.497Z,6.90
2019-03-30T01:38:57.393Z,6.93
2019-03-30T01:41:23.239Z,8.07
2019-03-30T01:43:49.073Z,6.70
2019-03-30T01:46:14.920Z,8.80
2019-03-30T01:48:40.754Z,8.10
2019-03-30T01:51:06.607Z,7.13
2019-03-30T01:53:32.430Z,7.90
2019-03-30T01:55:58.289Z,7.57
2019-03-30T01:58:24.112Z,6.50
2019-03-30T02:00:49.974Z,7.00
2019-03-30T02:03:15.918Z,6.73
2019-03-30T02:05:41.754Z,7.30
2019-03-30T02:08:07.599Z,8.07
2019-03-30T02:10:41.298Z,6.90
2019-03-30T02:13:07.421Z,8.57
2019-03-30T02:15:33.361Z,6.70
2019-03-30T02:17:59.222Z,6.90
2019-03-30T02:20:36.766Z,8.80
2019-03-30T02:23:02.636Z,8.03
2019-03-30T02:25:28.530Z,6.73
2019-03-30T02:27:54.318Z,7.93
2019-03-30T02:30:20.294Z,6.40
2019-03-30T02:32:46.153Z,8.57
2019-03-30T02:35:12.109Z,7.13
2019-03-30T02:37:37.963Z,7.00
2019-03-30T02:40:05.106Z,7.27
2019-03-30T02:42:30.966Z,7.30
2019-03-30T02:44:56.838Z,6.87
2019-03-30T02:47:22.702Z,7.90
2019-03-30T02:49:48.544Z,8.13
2019-03-30T02:52:14.390Z,7.60
2019-03-30T02:54:40.255Z,7.33
2019-03-30T02:57:06.125Z,7.30
2019-03-30T02:59:31.974Z,7.00
2019-03-30T03:01:57.805Z,8.40
2019-03-30T03:04:23.756Z,7.90
2019-03-30T03:06:49.650Z,7.53
2019-03-30T03:09:15.502Z,6.47
2019-03-30T03:11:41.486Z,8.10
2019-03-30T03:14:07.327Z,6.97
2019-03-30T03:16:33.176Z,7.60
2019-03-30T03:18:59.032Z,6.17
2019-03-30T03:21:24.957Z,7.10
2019-03-30T03:23:50.828Z,7.93
2019-03-30T03:26:16.669Z,7.20
2019-03-30T03:28:42.560Z,6.90
2019-03-30T03:31:08.409Z,8.63
2019-03-30T03:33:34.258Z,7.73
2019-03-30T03:36:00.086Z,7.50
2019-03-30T03:38:25.936Z,8.53
2019-03-30T03:40:51.798Z,6.73
2019-03-30T03:43:17.638Z,7.53
2019-03-30T03:45:43.509Z,7.70
2019-03-30T03:48:09.350Z,7.30
2019-03-30T03:50:42.604Z,8.90
2019-03-30T03:53:10.841Z,8.67
2019-03-30T03:55:39.022Z,7.53
2019-03-30T03:58:05.875Z,8.30
2019-03-30T04:00:32.954Z,8.10
2019-03-30T04:02:59.528Z,7.40
2019-03-30T04:05:26.192Z,8.53
2019-03-30T04:07:52.749Z,7.57
2019-03-30T04:10:18.894Z,9.10
2019-03-30T04:12:45.963Z,7.30
2019-03-30T04:15:15.720Z,7.27
2019-03-30T04:17:41.666Z,8.07
2019-03-30T04:20:07.610Z,9.33
2019-03-30T04:22:33.480Z,8.37
2019-03-30T04:24:59.414Z,8.03
2019-03-30T04:27:25.281Z,8.23
2019-03-30T04:29:51.113Z,9.37
2019-03-30T04:32:16.965Z,16.90
2019-03-30T04:34:42.833Z,18.70
2019-03-30T04:37:08.699Z,15.43
2019-03-30T04:39:34.543Z,33.60
2019-03-30T04:42:00.420Z,14.70
2019-03-30T04:44:26.294Z,20.27
2019-03-30T04:46:52.150Z,13.87
2019-03-30T04:49:18.002Z,23.47
2019-03-30T04:51:56.779Z,15.63
2019-03-30T04:54:11.597Z,16.07
2019-03-30T04:56:37.422Z,14.53
2019-03-30T04:59:03.312Z,10.30
2019-03-30T05:01:29.156Z,8.60
2019-03-30T05:03:55.006Z,9.17
2019-03-30T05:06:20.876Z,8.00
2019-03-30T05:08:47.000Z,7.07
2019-03-30T05:11:12.844Z,8.53
2019-03-30T05:13:38.701Z,8.33
2019-03-30T05:16:04.574Z,8.57
2019-03-30T05:18:30.416Z,8.10
2019-03-30T05:20:56.257Z,8.63
2019-03-30T05:23:22.092Z,8.87
2019-03-30T05:25:47.966Z,8.07
2019-03-30T05:28:13.802Z,8.13
2019-03-30T05:30:39.659Z,7.30
2019-03-30T05:33:06.539Z,8.27
2019-03-30T05:35:32.552Z,8.70
2019-03-30T05:38:01.307Z,7.43
2019-03-30T05:40:26.288Z,8.93
2019-03-30T05:42:52.135Z,9.10
2019-03-30T05:45:18.042Z,9.70
2019-03-30T05:47:43.867Z,10.10
2019-03-30T05:50:09.803Z,9.23
2019-03-30T05:52:35.911Z,11.40
2019-03-30T05:55:01.904Z,11.27
2019-03-30T05:57:27.880Z,11.20
2019-03-30T05:59:55.851Z,9.83
2019-03-30T06:02:21.470Z,10.77
2019-03-30T06:04:47.299Z,10.80
2019-03-30T06:07:13.163Z,10.23
2019-03-30T06:09:38.989Z,10.40
2019-03-30T06:12:04.817Z,9.73
2019-03-30T06:14:30.783Z,10.20
2019-03-30T06:16:56.637Z,9.30
2019-03-30T06:19:22.492Z,10.80
2019-03-30T06:21:48.336Z,10.30
2019-03-30T06:24:14.181Z,11.17
2019-03-30T06:26:40.026Z,11.10
2019-03-30T06:29:05.891Z,11.40
2019-03-30T06:31:31.733Z,11.10
2019-03-30T06:33:57.578Z,9.90
2019-03-30T06:36:23.424Z,10.10
2019-03-30T06:38:49.261Z,11.20
2019-03-30T06:41:15.111Z,10.30
2019-03-30T06:43:40.959Z,10.23
2019-03-30T06:46:06.793Z,10.47
2019-03-30T06:48:35.861Z,11.37
2019-03-30T06:51:00.413Z,10.53
2019-03-30T06:53:26.264Z,11.00
2019-03-30T06:55:52.115Z,11.20
2019-03-30T06:58:17.961Z,12.23
2019-03-30T07:00:44.840Z,11.83
2019-03-30T07:03:10.678Z,10.67
2019-03-30T07:05:37.335Z,11.20
2019-03-30T07:08:03.440Z,12.80
2019-03-30T07:10:29.507Z,11.10
2019-03-30T07:12:55.488Z,11.40
2019-03-30T07:15:21.696Z,12.33
2019-03-30T07:17:47.524Z,12.50
2019-03-30T07:20:27.152Z,11.07
2019-03-30T07:22:54.612Z,13.70
2019-03-30T07:25:20.442Z,11.73
2019-03-30T07:27:46.275Z,11.20
2019-03-30T07:30:12.211Z,12.30
2019-03-30T07:32:38.062Z,12.60
2019-03-30T07:35:05.011Z,12.00
2019-03-30T07:37:30.858Z,13.30
2019-03-30T07:39:56.690Z,11.50
2019-03-30T07:42:22.563Z,12.83
2019-03-30T07:44:48.413Z,12.03
2019-03-30T07:47:14.244Z,13.67
2019-03-30T07:49:40.097Z,12.70
2019-03-30T07:52:05.937Z,13.10
2019-03-30T07:54:31.820Z,14.97
2019-03-30T07:57:05.416Z,12.60
2019-03-30T07:59:25.434Z,12.33
2019-03-30T08:01:51.390Z,13.37
2019-03-30T08:04:17.265Z,12.87
2019-03-30T08:06:43.143Z,14.27
2019-03-30T08:09:10.928Z,11.63
2019-03-30T08:11:36.786Z,12.67
2019-03-30T08:14:02.870Z,12.17
2019-03-30T08:16:28.718Z,13.53
2019-03-30T08:18:54.666Z,13.70
2019-03-30T08:21:20.594Z,11.70
2019-03-30T08:23:46.421Z,13.50
2019-03-30T08:26:12.289Z,12.20
2019-03-30T08:28:38.148Z,13.37
2019-03-30T08:31:03.994Z,11.33
2019-03-30T08:33:29.837Z,13.23
2019-03-30T08:35:55.682Z,13.50
2019-03-30T08:38:21.511Z,12.37
2019-03-30T08:40:47.379Z,13.07
2019-03-30T08:43:13.319Z,12.90
2019-03-30T08:45:39.189Z,14.40
2019-03-30T08:48:05.028Z,13.77
2019-03-30T08:50:30.924Z,12.63
2019-03-30T08:52:56.776Z,12.87
2019-03-30T08:55:22.610Z,12.80
2019-03-30T08:57:48.453Z,12.57
2019-03-30T09:00:18.208Z,13.60
2019-03-30T09:02:44.084Z,13.40
2019-03-30T09:05:09.932Z,12.47
2019-03-30T09:07:35.792Z,12.20
2019-03-30T09:10:06.806Z,13.30
2019-03-30T09:12:32.691Z,14.17
2019-03-30T09:14:58.519Z,12.50
2019-03-30T09:17:24.385Z,13.00
2019-03-30T09:19:50.234Z,13.23
2019-03-30T09:22:16.108Z,13.67
2019-03-30T09:24:41.951Z,13.90
2019-03-30T09:27:07.793Z,13.73
2019-03-30T09:29:33.657Z,13.97
2019-03-30T09:32:13.235Z,15.70
2019-03-30T09:34:27.284Z,14.03
2019-03-30T09:36:53.344Z,15.13
2019-03-30T09:39:19.285Z,15.53
2019-03-30T09:41:45.203Z,14.20
2019-03-30T09:44:11.179Z,11.90
2019-03-30T09:46:37.081Z,12.43
2019-03-30T09:49:02.902Z,12.30
2019-03-30T09:51:28.739Z,12.07
2019-03-30T09:53:54.629Z,12.77
2019-03-30T09:56:20.492Z,14.10
2019-03-30T09:58:46.368Z,13.20
2019-03-30T10:01:12.222Z,13.40
2019-03-30T10:03:38.078Z,11.80
2019-03-30T10:06:04.022Z,14.10
2019-03-30T10:08:30.125Z,13.30
2019-03-30T10:10:55.988Z,12.30
2019-03-30T10:13:21.859Z,13.10
2019-03-30T10:15:47.686Z,12.63
2019-03-30T10:18:13.521Z,12.60
2019-03-30T10:20:39.375Z,12.37
2019-03-30T10:23:05.197Z,12.67
2019-03-30T10:25:31.922Z,12.30
2019-03-30T10:27:57.781Z,9.90
2019-03-30T10:30:23.617Z,13.00
2019-03-30T10:32:49.472Z,12.53
2019-03-30T10:35:15.292Z,12.47
2019-03-30T10:37:41.170Z,11.43
2019-03-30T10:40:08.230Z,12.53
2019-03-30T10:42:34.121Z,13.77
2019-03-30T10:44:59.957Z,12.90
2019-03-30T10:47:25.828Z,12.50
2019-03-30T10:49:51.975Z,11.83
2019-03-30T10:52:17.823Z,11.57
2019-03-30T10:54:52.483Z,12.10
2019-03-30T10:57:11.458Z,11.57
2019-03-30T10:59:37.311Z,11.83
2019-03-30T11:02:04.605Z,11.70
2019-03-30T11:04:30.913Z,11.60
2019-03-30T11:06:56.758Z,11.40
2019-03-30T11:09:22.702Z,12.63
2019-03-30T11:11:50.129Z,12.47
2019-03-30T11:14:16.792Z,12.43
2019-03-30T11:16:42.718Z,12.30
2019-03-30T11:19:09.824Z,12.70
2019-03-30T11:21:36.628Z,13.30
2019-03-30T11:24:06.497Z,14.27
2019-03-30T11:26:33.539Z,14.57
2019-03-30T11:28:59.849Z,14.37
2019-03-30T11:31:25.722Z,12.97
2019-03-30T11:33:51.573Z,13.27
2019-03-30T11:36:18.787Z,14.63
2019-03-30T11:38:44.792Z,13.27
2019-03-30T11:41:10.642Z,15.33
2019-03-30T11:43:38.449Z,14.70
2019-03-30T11:46:05.230Z,13.70
2019-03-30T11:48:32.554Z,11.97
2019-03-30T11:50:58.400Z,14.20
2019-03-30T11:53:24.253Z,13.00
2019-03-30T11:55:50.124Z,13.73
2019-03-30T11:58:16.092Z,14.43
2019-03-30T12:00:42.068Z,14.60
2019-03-30T12:03:07.935Z,12.60
2019-03-30T12:05:33.769Z,14.47
2019-03-30T12:07:59.620Z,14.57
2019-03-30T12:10:25.471Z,14.30
2019-03-30T12:12:51.329Z,13.80
2019-03-30T12:15:17.508Z,13.00
2019-03-30T12:17:43.341Z,13.80
2019-03-30T12:20:09.201Z,14.20
2019-03-30T12:22:35.045Z,12.87
2019-03-30T12:25:00.916Z,14.43
2019-03-30T12:27:26.762Z,14.57
2019-03-30T12:29:52.597Z,14.50
2019-03-30T12:32:18.450Z,13.90
2019-03-30T12:34:44.751Z,13.20
2019-03-30T12:37:11.028Z,11.27
2019-03-30T12:39:37.000Z,13.63
2019-03-30T12:42:03.065Z,13.50
2019-03-30T12:44:28.914Z,12.60
2019-03-30T12:46:54.938Z,11.77
2019-03-30T12:49:20.806Z,13.40
2019-03-30T12:51:46.652Z,12.80
2019-03-30T12:54:12.498Z,11.83
2019-03-30T12:56:38.346Z,12.23
2019-03-30T12:59:04.201Z,12.10
2019-03-30T13:01:34.387Z,12.70
2019-03-30T13:04:00.236Z,14.00
2019-03-30T13:06:26.106Z,13.47
2019-03-30T13:08:51.949Z,13.77
2019-03-30T13:11:17.827Z,14.00
2019-03-30T13:13:43.757Z,13.23
2019-03-30T13:16:09.695Z,14.03
2019-03-30T13:18:35.504Z,12.53
2019-03-30T13:21:01.365Z,12.77
2019-03-30T13:23:27.196Z,13.50
2019-03-30T13:26:03.404Z,14.50
2019-03-30T13:28:20.806Z,12.57
2019-03-30T13:30:46.649Z,13.20
2019-03-30T13:33:13.138Z,13.80
2019-03-30T13:35:38.977Z,13.70
2019-03-30T13:38:04.866Z,12.07
2019-03-30T13:40:30.718Z,13.03
2019-03-30T13:42:56.589Z,13.40
2019-03-30T13:45:22.430Z,12.63
2019-03-30T13:47:48.306Z,13.30
2019-03-30T13:50:14.299Z,12.60
2019-03-30T13:52:40.144Z,12.77
2019-03-30T13:55:06.208Z,13.20
2019-03-30T13:57:32.094Z,14.23
2019-03-30T13:59:57.963Z,13.50
2019-03-30T14:02:23.810Z,12.03
2019-03-30T14:04:52.253Z,12.40
2019-03-30T14:07:17.429Z,11.60
2019-03-30T14:09:43.303Z,12.73
2019-03-30T14:12:09.140Z,13.00
2019-03-30T14:14:35.054Z,13.73
2019-03-30T14:17:00.886Z,13.77
2019-03-30T14:19:26.764Z,13.30
2019-03-30T14:21:52.613Z,11.77
2019-03-30T14:24:18.493Z,12.90
2019-03-30T14:26:45.174Z,11.87
2019-03-30T14:29:11.093Z,14.13
2019-03-30T14:31:36.960Z,14.37
2019-03-30T14:34:02.921Z,12.43
2019-03-30T14:36:28.771Z,11.10
2019-03-30T14:38:54.644Z,11.93
2019-03-30T14:41:20.515Z,13.07
2019-03-30T14:43:46.353Z,13.10
2019-03-30T14:46:12.378Z,11.63
2019-03-30T14:48:38.226Z,11.17
2019-03-30T14:51:06.004Z,10.17
2019-03-30T14:53:31.888Z,9.20
2019-03-30T14:55:57.756Z,9.10
2019-03-30T14:58:23.850Z,10.17
2019-03-30T15:00:49.706Z,9.27
2019-03-30T15:03:15.687Z,9.87
2019-03-30T15:05:41.599Z,8.60
2019-03-30T15:08:07.560Z,10.97
2019-03-30T15:10:33.525Z,10.87
2019-03-30T15:12:59.401Z,11.13
2019-03-30T15:15:25.259Z,10.80
2019-03-30T15:17:54.375Z,10.77
2019-03-30T15:20:20.240Z,9.20
2019-03-30T15:22:46.103Z,9.50
2019-03-30T15:25:12.156Z,9.80
2019-03-30T15:27:38.113Z,10.10
2019-03-30T15:30:05.326Z,9.60
2019-03-30T15:32:31.330Z,9.80
2019-03-30T15:34:58.473Z,10.20
2019-03-30T15:37:24.517Z,10.47
2019-03-30T15:39:50.400Z,9.43
2019-03-30T15:42:16.392Z,9.47
2019-03-30T15:44:42.249Z,8.97
2019-03-30T15:47:08.235Z,8.40
2019-03-30T15:49:34.102Z,9.63
2019-03-30T15:52:13.304Z,11.93
2019-03-30T15:54:27.734Z,10.50
2019-03-30T15:56:53.604Z,12.37
2019-03-30T15:59:19.436Z,13.03
2019-03-30T16:01:47.824Z,13.47
2019-03-30T16:04:14.599Z,12.00
2019-03-30T16:06:40.546Z,11.37
2019-03-30T16:09:06.514Z,11.50
2019-03-30T16:11:32.344Z,10.60
2019-03-30T16:13:58.297Z,11.27
2019-03-30T16:16:24.154Z,10.00
2019-03-30T16:18:50.007Z,10.23
2019-03-30T16:21:15.851Z,10.30
2019-03-30T16:23:41.706Z,9.30
2019-03-30T16:26:07.548Z,9.70
2019-03-30T16:28:33.413Z,11.30
2019-03-30T16:30:59.794Z,12.13
2019-03-30T16:33:25.745Z,11.50
2019-03-30T16:35:51.588Z,11.87
2019-03-30T16:38:17.427Z,10.40
2019-03-30T16:40:43.302Z,12.40
2019-03-30T16:43:09.212Z,10.90
2019-03-30T16:45:35.163Z,11.73
2019-03-30T16:48:01.010Z,11.10
2019-03-30T16:50:26.854Z,12.83
2019-03-30T16:52:52.956Z,12.13
2019-03-30T16:55:18.827Z,11.90
2019-03-30T16:57:44.762Z,10.57
2019-03-30T17:00:10.817Z,9.60
2019-03-30T17:02:36.918Z,9.13
2019-03-30T17:05:05.587Z,9.00
2019-03-30T17:07:31.403Z,8.80
2019-03-30T17:09:57.353Z,8.90
2019-03-30T17:12:23.278Z,7.47
2019-03-30T17:14:49.123Z,8.50
2019-03-30T17:17:14.942Z,7.70
2019-03-30T17:19:40.780Z,7.30
2019-03-30T17:22:06.622Z,8.47
2019-03-30T17:24:32.477Z,7.90
2019-03-30T17:26:58.314Z,8.40
2019-03-30T17:29:24.167Z,9.57
2019-03-30T17:31:50.014Z,9.33
2019-03-30T17:34:15.860Z,8.60
2019-03-30T17:36:41.731Z,9.27
2019-03-30T17:39:08.285Z,11.07
2019-03-30T17:41:34.528Z,10.47
2019-03-30T17:44:00.366Z,16.13
2019-03-30T17:46:26.202Z,17.10
2019-03-30T17:48:52.332Z,19.43
2019-03-30T17:51:18.193Z,19.97
2019-03-30T17:53:44.059Z,21.23
2019-03-30T17:56:09.919Z,17.13
2019-03-30T17:58:35.788Z,14.27
2019-03-30T18:01:01.722Z,13.13
2019-03-30T18:03:27.562Z,12.50
2019-03-30T18:05:53.445Z,11.80
2019-03-30T18:08:19.295Z,12.53
2019-03-30T18:10:45.139Z,13.70
2019-03-30T18:13:10.999Z,14.00
2019-03-30T18:15:36.811Z,11.90
2019-03-30T18:18:02.692Z,12.27
2019-03-30T18:20:28.627Z,12.60
2019-03-30T18:22:54.464Z,13.33
2019-03-30T18:25:20.336Z,14.17
2019-03-30T18:27:46.185Z,28.20
2019-03-30T18:30:12.529Z,29.90
2019-03-30T18:32:39.367Z,19.40
2019-03-30T18:35:05.378Z,19.23
2019-03-30T18:37:32.086Z,16.27
2019-03-30T18:39:58.165Z,19.27
2019-03-30T18:42:24.246Z,23.47
2019-03-30T18:44:50.874Z,20.93
2019-03-30T18:47:16.726Z,21.90
2019-03-30T18:49:42.843Z,19.50
2019-03-30T18:52:08.828Z,14.17
2019-03-30T18:54:34.977Z,13.90
2019-03-30T18:57:01.236Z,13.33
2019-03-30T18:59:27.080Z,13.00
2019-03-30T19:01:52.947Z,13.50
2019-03-30T19:04:18.964Z,13.50
2019-03-30T19:06:44.832Z,11.70
2019-03-30T19:09:10.653Z,10.93
2019-03-30T19:11:36.625Z,10.80
2019-03-30T19:14:02.479Z,11.67
2019-03-30T19:16:28.307Z,15.77
2019-03-30T19:18:54.189Z,13.60
2019-03-30T19:21:20.027Z,14.63
2019-03-30T19:23:45.897Z,9.80
2019-03-30T19:26:11.827Z,9.50
2019-03-30T19:28:37.685Z,8.10
2019-03-30T19:31:03.530Z,8.27
2019-03-30T19:33:29.402Z,8.07
2019-03-30T19:35:55.240Z,9.70
2019-03-30T19:38:21.097Z,9.50
2019-03-30T19:40:46.989Z,9.00
2019-03-30T19:43:12.819Z,9.20
2019-03-30T19:45:38.907Z,8.93
2019-03-30T19:48:04.750Z,8.97
2019-03-30T19:50:30.609Z,8.53
2019-03-30T19:52:56.458Z,9.10
2019-03-30T19:55:22.333Z,10.80
2019-03-30T19:57:48.165Z,11.67
2019-03-30T20:00:14.546Z,12.90
2019-03-30T20:02:40.485Z,15.00
2019-03-30T20:05:06.516Z,13.03
2019-03-30T20:07:32.399Z,13.30
2019-03-30T20:09:58.241Z,13.80
2019-03-30T20:12:24.254Z,15.53
2019-03-30T20:14:50.181Z,20.53
2019-03-30T20:17:16.025Z,20.43
2019-03-30T20:19:41.856Z,16.23
2019-03-30T20:22:07.709Z,14.87
2019-03-30T20:24:33.657Z,17.27
2019-03-30T20:26:59.516Z,15.60
2019-03-30T20:29:25.983Z,16.47
2019-03-30T20:31:51.923Z,14.60
2019-03-30T20:34:17.785Z,14.03
2019-03-30T20:36:43.636Z,15.67
2019-03-30T20:39:09.585Z,19.37
2019-03-30T20:41:35.454Z,14.00
2019-03-30T20:44:01.329Z,12.20
2019-03-30T20:46:27.188Z,9.73
2019-03-30T20:48:53.073Z,11.73
2019-03-30T20:51:18.929Z,9.60
2019-03-30T20:53:44.811Z,8.00
2019-03-30T20:56:10.666Z,7.80
2019-03-30T20:58:36.535Z,10.50
2019-03-30T21:01:02.480Z,11.23
2019-03-30T21:03:28.363Z,11.50
2019-03-30T21:05:54.207Z,12.53
2019-03-30T21:08:20.056Z,17.70
2019-03-30T21:10:45.905Z,16.97
2019-03-30T21:13:11.766Z,19.07
2019-03-30T21:15:37.625Z,18.93
2019-03-30T21:18:03.459Z,14.57
2019-03-30T21:20:29.342Z,12.70
2019-03-30T21:22:55.172Z,12.70
2019-03-30T21:25:21.040Z,10.00
2019-03-30T21:27:46.885Z,7.87
2019-03-30T21:30:13.050Z,24.27
2019-03-30T21:32:39.004Z,91.43
2019-03-30T21:35:05.749Z,56.60
2019-03-30T21:37:31.704Z,28.50
2019-03-30T21:39:57.530Z,14.27
2019-03-30T21:42:23.405Z,18.13
2019-03-30T21:44:50.119Z,14.13
2019-03-30T21:47:15.991Z,17.10
2019-03-30T21:49:41.819Z,17.37
2019-03-30T21:52:07.706Z,14.00
2019-03-30T21:54:33.548Z,12.50
2019-03-30T21:56:59.422Z,13.93
2019-03-30T21:59:25.302Z,13.00
2019-03-30T22:01:51.160Z,11.63
2019-03-30T22:04:17.028Z,14.60
2019-03-30T22:06:42.969Z,13.60
2019-03-30T22:09:09.057Z,12.27
2019-03-30T22:11:34.902Z,13.57
2019-03-30T22:14:00.757Z,12.80
2019-03-30T22:16:26.592Z,11.10
2019-03-30T22:18:52.492Z,10.00
2019-03-30T22:21:18.339Z,10.63
2019-03-30T22:23:44.181Z,11.63
2019-03-30T22:26:10.035Z,10.73
2019-03-30T22:28:35.867Z,11.60
2019-03-30T22:31:01.742Z,10.00
2019-03-30T22:33:30.679Z,12.93
2019-03-30T22:35:55.709Z,11.77
2019-03-30T22:38:21.548Z,11.17
2019-03-30T22:40:47.492Z,11.17
2019-03-30T22:43:13.372Z,10.20
2019-03-30T22:45:39.250Z,12.17
2019-03-30T22:48:05.080Z,9.50
2019-03-30T22:50:30.919Z,8.20
2019-03-30T22:52:56.761Z,9.47
2019-03-30T22:55:22.607Z,10.20
2019-03-30T22:57:48.473Z,7.57
2019-03-30T23:00:16.344Z,7.73
2019-03-30T23:02:42.216Z,8.63
2019-03-30T23:05:08.355Z,7.17
2019-03-30T23:07:34.480Z,6.93
2019-03-30T23:10:00.380Z,7.50
2019-03-30T23:12:26.240Z,7.47
2019-03-30T23:14:52.103Z,10.13
2019-03-30T23:17:17.963Z,10.00
2019-03-30T23:19:43.820Z,7.93
2019-03-30T23:22:09.666Z,8.57
2019-03-30T23:24:35.499Z,7.37
2019-03-30T23:27:01.346Z,6.53
2019-03-30T23:29:27.223Z,9.27
2019-03-30T23:31:53.063Z,7.90
2019-03-30T23:34:18.920Z,7.47
2019-03-30T23:36:44.882Z,7.37
2019-03-30T23:39:10.753Z,6.57
2019-03-30T23:41:36.630Z,6.90
2019-03-30T23:44:02.856Z,7.60
2019-03-30T23:46:28.717Z,7.40
2019-03-30T23:48:54.837Z,6.80
2019-03-30T23:51:20.708Z,7.20
2019-03-30T23:53:46.540Z,6.63
2019-03-30T23:56:16.217Z,8.27
2019-03-30T23:58:42.055Z,8.37
